Time;durP1;ratioP1;P1;durP2;ratioP2;P2;SDS_P1;SDS_P2;PMS_P1;PMS_P2;Temp;Humidity;BMP_temperature;BMP_pressure;BME280_temperature;BME280_humidity;BME280_pressure;Samples;Min_cycle;Max_cycle;Signal;HPM_P1;HPM_P2
2023/07/09 00:00:51;;;;;;;1999.90;999.90;;;19.50;98.50;;;;;;5055381;28;20511;-70
2023/07/09 00:03:18;;;;;;;1999.90;999.90;;;19.60;98.60;;;;;;5055046;28;20136;-71
2023/07/09 00:05:47;;;;;;;1999.90;999.90;;;19.60;98.40;;;;;;5055034;28;20108;-71
2023/07/09 00:08:33;;;;;;;1999.90;999.90;;;19.70;98.50;;;;;;5055016;28;20051;-71
2023/07/09 00:10:59;;;;;;;1999.90;999.90;;;19.70;98.40;;;;;;5055191;28;20029;-71
2023/07/09 00:13:26;;;;;;;1999.90;999.90;;;19.50;99.40;;;;;;5055016;28;20479;-71
2023/07/09 00:15:57;;;;;;;1999.90;999.90;;;19.50;99.50;;;;;;5054911;28;20196;-71
2023/07/09 00:18:22;;;;;;;1999.90;999.90;;;19.40;99.20;;;;;;5055439;28;20044;-71
2023/07/09 00:20:48;;;;;;;1999.90;999.90;;;19.40;99.50;;;;;;5055142;28;20026;-71
2023/07/09 00:23:14;;;;;;;1999.90;999.90;;;19.30;99.30;;;;;;5054424;28;20041;-70
2023/07/09 00:25:44;;;;;;;1999.90;999.90;;;19.30;99.40;;;;;;5054906;28;20529;-71
2023/07/09 00:28:17;;;;;;;1999.90;999.90;;;19.30;99.50;;;;;;5054885;28;20034;-71
2023/07/09 00:30:44;;;;;;;1999.90;999.90;;;19.20;99.80;;;;;;5054875;28;20072;-71
2023/07/09 00:33:14;;;;;;;1999.90;999.90;;;19.20;99.60;;;;;;5052679;28;20045;-71
2023/07/09 00:35:44;;;;;;;1999.90;999.90;;;19.10;99.50;;;;;;5054657;28;20053;-71
2023/07/09 00:38:21;;;;;;;1999.90;999.90;;;19.10;99.90;;;;;;5054992;28;20103;-71
2023/07/09 00:41:18;;;;;;;1999.90;999.90;;;19.10;99.90;;;;;;5055047;28;20033;-68
2023/07/09 00:43:45;;;;;;;1999.90;999.90;;;19.20;99.90;;;;;;5054938;28;20043;-71
2023/07/09 00:46:19;;;;;;;1999.90;999.90;;;19.20;99.50;;;;;;5054626;28;20033;-72
2023/07/09 00:48:57;;;;;;;1999.90;999.90;;;19.20;99.40;;;;;;5054701;28;20108;-71
2023/07/09 00:51:24;;;;;;;1999.90;999.90;;;19.10;99.90;;;;;;5054045;28;20556;-71
2023/07/09 00:53:53;;;;;;;1999.90;999.90;;;19.10;99.80;;;;;;5054535;28;20037;-70
2023/07/09 00:56:37;;;;;;;1999.90;999.90;;;19.00;99.90;;;;;;5054353;28;20112;-71
2023/07/09 00:59:06;;;;;;;1999.90;999.90;;;18.90;99.90;;;;;;5054645;28;20029;-71
2023/07/09 01:01:33;;;;;;;1999.90;999.90;;;18.90;99.90;;;;;;5053965;28;20044;-71
2023/07/09 01:04:03;;;;;;;1999.90;999.90;;;18.90;99.90;;;;;;5054447;28;20482;-71
2023/07/09 01:06:41;;;;;;;1999.90;999.90;;;18.80;99.90;;;;;;5054539;28;20040;-71
2023/07/09 01:09:07;;;;;;;1999.90;999.90;;;18.70;99.90;;;;;;5054350;28;20044;-71
2023/07/09 01:11:33;;;;;;;1999.90;999.90;;;18.60;99.90;;;;;;5054086;28;20029;-71
2023/07/09 01:14:02;;;;;;;1999.90;999.90;;;18.50;99.90;;;;;;5054343;28;20040;-71
2023/07/09 01:16:31;;;;;;;1999.90;999.90;;;18.50;99.90;;;;;;5054143;28;20462;-71
2023/07/09 01:18:57;;;;;;;1999.90;999.90;;;18.50;99.90;;;;;;5054031;28;20041;-71
2023/07/09 01:21:22;;;;;;;1999.90;999.90;;;18.40;99.90;;;;;;5052331;28;20122;-71
2023/07/09 01:23:50;;;;;;;1999.90;999.90;;;18.40;99.90;;;;;;5052684;28;20407;-70
2023/07/09 01:26:27;;;;;;;1999.90;999.90;;;18.40;99.90;;;;;;5054062;28;20034;-70
2023/07/09 01:28:54;;;;;;;1999.90;999.90;;;18.40;99.90;;;;;;5054307;28;20597;-70
2023/07/09 01:31:20;;;;;;;1999.90;999.90;;;18.30;99.90;;;;;;5053970;28;20112;-71
2023/07/09 01:33:46;;;;;;;1999.90;999.90;;;18.30;99.90;;;;;;5053832;28;20038;-70
2023/07/09 01:36:15;;;;;;;1999.90;999.90;;;18.20;99.90;;;;;;5053998;28;20031;-71
2023/07/09 01:38:42;;;;;;;1999.90;999.90;;;18.30;99.90;;;;;;5054157;28;20064;-71
2023/07/09 01:41:07;;;;;;;1999.90;999.90;;;18.20;99.90;;;;;;5053842;28;20444;-71
2023/07/09 01:43:33;;;;;;;1999.90;999.90;;;18.20;99.90;;;;;;5053327;28;20088;-71
2023/07/09 01:45:59;;;;;;;1999.90;999.90;;;18.10;99.90;;;;;;5053910;28;20045;-71
2023/07/09 01:48:26;;;;;;;1999.90;999.90;;;18.10;99.90;;;;;;5054017;28;20045;-71
2023/07/09 01:50:52;;;;;;;1999.90;999.90;;;18.10;99.90;;;;;;5053857;28;20121;-70
2023/07/09 01:53:23;;;;;;;1999.90;999.90;;;18.20;99.90;;;;;;5053769;28;20116;-70
2023/07/09 01:55:50;;;;;;;1999.90;999.90;;;18.00;99.90;;;;;;5054058;28;20075;-71
2023/07/09 01:58:16;;;;;;;1999.90;999.90;;;18.00;99.90;;;;;;5054022;28;20041;-71
2023/07/09 02:00:41;;;;;;;1999.90;999.90;;;18.00;99.90;;;;;;5052329;28;20384;-71
2023/07/09 02:03:08;;;;;;;1999.90;999.90;;;18.00;99.90;;;;;;5053652;28;20052;-71
2023/07/09 02:05:36;;;;;;;1999.90;999.90;;;18.00;99.90;;;;;;5056984;28;20116;-71
2023/07/09 02:08:02;;;;;;;1999.90;999.90;;;17.90;99.90;;;;;;5057117;28;20037;-71
2023/07/09 02:10:28;;;;;;;1999.90;999.90;;;17.80;99.90;;;;;;5056965;28;20037;-71
2023/07/09 02:12:54;;;;;;;1999.90;999.90;;;17.80;99.90;;;;;;5056653;28;20044;-72
2023/07/09 02:15:19;;;;;;;1999.90;999.90;;;17.80;99.90;;;;;;5057275;28;20078;-71
2023/07/09 02:17:45;;;;;;;1999.90;999.90;;;17.80;99.90;;;;;;5056964;28;20041;-71
2023/07/09 02:20:12;;;;;;;1999.90;999.90;;;17.70;99.90;;;;;;5057055;28;20029;-71
2023/07/09 02:22:38;;;;;;;1999.90;999.90;;;17.70;99.90;;;;;;5056092;28;20029;-71
2023/07/09 02:25:05;;;;;;;1999.90;999.90;;;17.70;99.90;;;;;;5057171;28;20038;-71
2023/07/09 02:27:32;;;;;;;1999.90;999.90;;;17.60;99.90;;;;;;5056598;28;20044;-71
2023/07/09 02:29:58;;;;;;;1999.90;999.90;;;17.60;99.90;;;;;;5056671;28;20495;-71
2023/07/09 02:32:25;;;;;;;1999.90;999.90;;;17.60;99.90;;;;;;5056358;28;20102;-69
2023/07/09 02:34:52;;;;;;;1999.90;999.90;;;17.60;99.90;;;;;;5055333;28;20117;-70
2023/07/09 02:37:23;;;;;;;1999.90;999.90;;;17.50;99.90;;;;;;5055280;28;20037;-69
2023/07/09 02:39:49;;;;;;;1999.90;999.90;;;17.50;99.90;;;;;;5057008;28;20026;-68
2023/07/09 02:42:18;;;;;;;1999.90;999.90;;;17.50;99.90;;;;;;5056301;28;20038;-68
2023/07/09 02:44:44;;;;;;;1999.90;999.90;;;17.50;99.90;;;;;;5056289;28;20033;-68
2023/07/09 02:47:10;;;;;;;1999.90;999.90;;;17.50;99.90;;;;;;5056699;28;20120;-68
2023/07/09 02:49:36;;;;;;;1999.90;999.90;;;17.50;99.90;;;;;;5056580;28;20534;-69
2023/07/09 02:52:03;;;;;;;1999.90;999.90;;;17.40;99.90;;;;;;5055908;28;20086;-69
2023/07/09 02:54:28;;;;;;;1999.90;999.90;;;17.50;99.90;;;;;;5056548;28;20038;-68
2023/07/09 02:56:54;;;;;;;1999.90;999.90;;;17.40;99.90;;;;;;5056290;28;20399;-69
2023/07/09 02:59:19;;;;;;;1999.90;999.90;;;17.40;99.90;;;;;;5055158;28;20083;-68
2023/07/09 03:01:47;;;;;;;1999.90;999.90;;;17.40;99.90;;;;;;5055945;28;20037;-69
2023/07/09 03:04:12;;;;;;;1999.90;999.90;;;17.40;99.90;;;;;;5056378;28;20471;-68
2023/07/09 03:06:38;;;;;;;1999.90;999.90;;;17.50;99.90;;;;;;5056364;28;20167;-69
2023/07/09 03:09:04;;;;;;;1999.90;999.90;;;17.50;99.90;;;;;;5056462;28;20037;-70
2023/07/09 03:11:31;;;;;;;1999.90;999.90;;;17.50;99.90;;;;;;5055940;28;20033;-70
2023/07/09 03:13:58;;;;;;;1999.90;999.90;;;17.40;99.90;;;;;;5056020;28;20032;-68
2023/07/09 03:16:27;;;;;;;1999.90;999.90;;;17.50;99.90;;;;;;5055507;28;20040;-69
2023/07/09 03:18:54;;;;;;;1999.90;999.90;;;17.40;99.90;;;;;;5056155;28;20041;-68
2023/07/09 03:21:20;;;;;;;1999.90;999.90;;;17.40;99.90;;;;;;5055801;28;20088;-69
2023/07/09 03:23:45;;;;;;;1999.90;999.90;;;17.50;99.90;;;;;;5053976;28;20127;-68
2023/07/09 03:26:11;;;;;;;1999.90;999.90;;;17.50;99.90;;;;;;5055384;28;20140;-69
2023/07/09 03:28:36;;;;;;;1999.90;999.90;;;17.40;99.90;;;;;;5056244;28;20124;-68
2023/07/09 03:31:02;;;;;;;1999.90;999.90;;;17.40;99.90;;;;;;5055712;28;20033;-68
2023/07/09 03:33:28;;;;;;;1999.90;999.90;;;17.40;99.90;;;;;;5055478;28;20037;-69
2023/07/09 03:35:53;;;;;;;1999.90;999.90;;;17.40;99.90;;;;;;5055963;28;20390;-69
2023/07/09 03:38:20;;;;;;;1999.90;999.90;;;17.40;99.90;;;;;;5055953;28;20386;-69
2023/07/09 03:40:45;;;;;;;1999.90;999.90;;;17.30;99.90;;;;;;5055452;28;20045;-69
2023/07/09 03:43:11;;;;;;;1999.90;999.90;;;17.30;99.90;;;;;;5055422;28;20040;-69
2023/07/09 03:45:37;;;;;;;1999.90;999.90;;;17.40;99.90;;;;;;5055793;28;20099;-69
2023/07/09 03:48:05;;;;;;;1999.90;999.90;;;17.40;99.90;;;;;;5055500;28;20044;-69
2023/07/09 03:50:31;;;;;;;1999.90;999.90;;;17.40;99.90;;;;;;5054080;28;20034;-69
2023/07/09 03:52:56;;;;;;;1999.90;999.90;;;17.40;99.90;;;;;;5055042;28;20045;-68
2023/07/09 03:55:22;;;;;;;1999.90;999.90;;;17.40;99.90;;;;;;5055668;28;20029;-69
2023/07/09 03:57:47;;;;;;;1999.90;999.90;;;17.40;99.90;;;;;;5055632;28;20361;-69
2023/07/09 04:00:14;;;;;;;1999.90;999.90;;;17.50;99.90;;;;;;5054111;28;20037;-71
2023/07/09 04:02:40;;;;;;;1999.90;999.90;;;17.40;99.90;;;;;;5054693;28;20040;-70
2023/07/09 04:05:09;;;;;;;1999.90;999.90;;;17.40;99.90;;;;;;5055273;28;20033;-69
2023/07/09 04:07:35;;;;;;;1999.90;999.90;;;17.50;99.90;;;;;;5055256;28;20064;-69
2023/07/09 04:10:00;;;;;;;1999.90;999.90;;;17.50;99.90;;;;;;5055249;28;20072;-69
2023/07/09 04:12:26;;;;;;;1999.90;999.90;;;17.50;99.90;;;;;;5054708;28;20041;-69
2023/07/09 04:14:52;;;;;;;1999.90;999.90;;;17.50;99.90;;;;;;5053679;28;20034;-69
2023/07/09 04:17:17;;;;;;;1999.90;999.90;;;17.50;99.90;;;;;;5055169;28;20037;-69
2023/07/09 04:19:43;;;;;;;1999.90;999.90;;;17.50;99.90;;;;;;5055574;28;20053;-69
2023/07/09 04:22:11;;;;;;;1999.90;999.90;;;17.60;99.90;;;;;;5054686;28;20048;-70
2023/07/09 04:24:36;;;;;;;1999.90;999.90;;;17.60;99.90;;;;;;5055100;28;20026;-68
2023/07/09 04:27:02;;;;;;;1999.90;999.90;;;17.60;99.90;;;;;;5054315;28;20029;-69
2023/07/09 04:29:35;;;;;;;1999.90;999.90;;;17.60;99.90;;;;;;5055218;28;20060;-69
2023/07/09 04:32:12;;;;;;;1999.90;999.90;;;17.60;99.90;;;;;;5053104;28;20045;-69
2023/07/09 04:34:39;;;;;;;1999.90;999.90;;;17.60;99.90;;;;;;5055076;28;20056;-69
2023/07/09 04:37:09;;;;;;;1999.90;999.90;;;17.60;99.90;;;;;;5053507;28;20033;-69
2023/07/09 04:39:34;;;;;;;1999.90;999.90;;;17.60;99.90;;;;;;5054598;28;20042;-70
2023/07/09 04:42:00;;;;;;;1999.90;999.90;;;17.60;99.90;;;;;;5054354;28;20029;-70
2023/07/09 04:44:26;;;;;;;1999.90;999.90;;;17.50;99.90;;;;;;5054838;28;20065;-69
2023/07/09 04:46:51;;;;;;;1999.90;999.90;;;17.60;99.90;;;;;;5054710;28;20513;-68
2023/07/09 04:49:17;;;;;;;1999.90;999.90;;;17.70;99.90;;;;;;5054592;28;20128;-69
2023/07/09 04:51:42;;;;;;;1999.90;999.90;;;17.70;99.90;;;;;;5054388;28;20099;-69
2023/07/09 04:54:08;;;;;;;1999.90;999.90;;;17.80;99.90;;;;;;5054847;28;20165;-69
2023/07/09 04:56:33;;;;;;;1999.90;999.90;;;17.90;99.90;;;;;;5053081;28;20026;-69
2023/07/09 04:58:59;;;;;;;1999.90;999.90;;;18.00;99.90;;;;;;5054707;28;20431;-69
2023/07/09 05:01:24;;;;;;;1999.90;999.90;;;18.10;99.90;;;;;;5053998;28;20037;-69
2023/07/09 05:03:50;;;;;;;1999.90;999.90;;;18.20;99.90;;;;;;5054425;28;20513;-69
2023/07/09 05:06:16;;;;;;;1999.90;999.90;;;18.20;99.90;;;;;;5054384;28;20030;-70
2023/07/09 05:08:42;;;;;;;1999.90;999.90;;;18.30;99.90;;;;;;5054476;28;20877;-69
2023/07/09 05:11:10;;;;;;;1999.90;999.90;;;18.40;99.90;;;;;;5054193;28;20088;-70
2023/07/09 05:13:36;;;;;;;1999.90;999.90;;;18.50;99.90;;;;;;5054115;28;20035;-69
2023/07/09 05:16:01;;;;;;;1999.90;999.90;;;18.60;99.90;;;;;;5054506;28;20087;-69
2023/07/09 05:18:27;;;;;;;1999.90;999.90;;;18.70;99.90;;;;;;5054401;28;20088;-70
2023/07/09 05:20:52;;;;;;;1999.90;999.90;;;18.90;99.90;;;;;;5054639;28;20025;-69
2023/07/09 05:23:18;;;;;;;1999.90;999.90;;;18.90;99.90;;;;;;5052685;28;20394;-69
2023/07/09 05:25:44;;;;;;;1999.90;999.90;;;19.00;99.90;;;;;;5054313;28;20033;-69
2023/07/09 05:28:09;;;;;;;1999.90;999.90;;;19.10;99.90;;;;;;5054155;28;20049;-70
2023/07/09 05:30:35;;;;;;;1999.90;999.90;;;19.20;99.90;;;;;;5054041;28;20037;-69
2023/07/09 05:33:00;;;;;;;1999.90;999.90;;;19.30;99.90;;;;;;5053417;28;20045;-69
2023/07/09 05:35:27;;;;;;;1999.90;999.90;;;19.40;99.90;;;;;;5054143;28;20064;-70
2023/07/09 05:37:53;;;;;;;1999.90;999.90;;;19.50;99.90;;;;;;5053981;28;20117;-69
2023/07/09 05:40:19;;;;;;;1999.90;999.90;;;19.50;99.90;;;;;;5054260;28;20026;-69
2023/07/09 05:42:44;;;;;;;1999.90;999.90;;;19.70;99.90;;;;;;5053743;28;20483;-70
2023/07/09 05:45:11;;;;;;;1999.90;999.90;;;19.80;99.90;;;;;;5054189;28;20511;-69
2023/07/09 05:47:36;;;;;;;1999.90;999.90;;;19.80;99.90;;;;;;5053948;28;20048;-69
2023/07/09 05:50:03;;;;;;;1999.90;999.90;;;19.90;99.90;;;;;;5053960;28;20030;-69
2023/07/09 05:52:29;;;;;;;1999.90;999.90;;;20.10;99.90;;;;;;5053608;28;20026;-69
2023/07/09 05:54:55;;;;;;;1999.90;999.90;;;20.20;99.90;;;;;;5054103;28;20025;-69
2023/07/09 05:57:21;;;;;;;1999.90;999.90;;;20.30;99.90;;;;;;5053976;28;20037;-69
2023/07/09 05:59:46;;;;;;;1999.90;999.90;;;20.40;99.90;;;;;;5054028;28;20025;-69
2023/07/09 06:02:13;;;;;;;1999.90;999.90;;;20.60;99.90;;;;;;5046464;28;20038;-70
2023/07/09 06:04:39;;;;;;;1999.90;999.90;;;20.70;99.90;;;;;;5033780;28;20026;-70
2023/07/09 06:07:05;;;;;;;1999.90;999.90;;;20.80;99.90;;;;;;5033765;28;20037;-70
2023/07/09 06:09:31;;;;;;;1999.90;999.90;;;20.90;99.90;;;;;;5033946;28;20044;-70
2023/07/09 06:11:57;;;;;;;1999.90;999.90;;;21.00;99.90;;;;;;5033520;28;20026;-71
2023/07/09 06:14:23;;;;;;;1999.90;999.90;;;21.10;99.90;;;;;;5033844;28;20085;-70
2023/07/09 06:16:48;;;;;;;1999.90;999.90;;;21.20;99.90;;;;;;5034434;28;20034;-70
2023/07/09 06:19:14;;;;;;;1999.90;999.90;;;21.20;99.90;;;;;;5050491;28;20495;-70
2023/07/09 06:21:40;;;;;;;1999.90;999.90;;;21.30;99.90;;;;;;5051578;28;20037;-71
2023/07/09 06:24:07;;;;;;;1999.90;999.90;;;21.40;99.80;;;;;;5039487;28;20049;-72
2023/07/09 06:26:32;;;;;;;1999.90;999.90;;;21.50;99.20;;;;;;5044454;28;20038;-69
2023/07/09 06:28:58;;;;;;;1999.90;999.90;;;21.60;98.40;;;;;;5044806;28;20030;-70
2023/07/09 06:31:24;;;;;;;1999.90;999.90;;;21.70;98.50;;;;;;5044534;28;20025;-72
2023/07/09 06:33:50;;;;;;;1999.90;999.90;;;21.80;98.60;;;;;;5047060;28;20034;-78
2023/07/09 06:36:17;;;;;;;1999.90;999.90;;;21.90;98.40;;;;;;5042396;28;20029;-71
2023/07/09 06:38:42;;;;;;;1999.90;999.90;;;21.90;98.50;;;;;;5045540;28;20037;-75
2023/07/09 06:41:08;;;;;;;1999.90;999.90;;;22.10;98.20;;;;;;5047125;28;20471;-77
2023/07/09 06:43:34;;;;;;;1999.90;999.90;;;22.20;97.60;;;;;;5044050;28;20033;-70
2023/07/09 06:46:01;;;;;;;1999.90;999.90;;;22.40;97.40;;;;;;5047689;28;20033;-71
2023/07/09 06:48:28;;;;;;;1999.90;999.90;;;22.50;97.00;;;;;;5039094;28;20496;-70
2023/07/09 06:50:55;;;;;;;1999.90;999.90;;;22.60;97.10;;;;;;5046195;28;20034;-71
2023/07/09 06:53:21;;;;;;;1999.90;999.90;;;22.70;97.20;;;;;;5049669;28;20132;-71
2023/07/09 06:55:48;;;;;;;1999.90;999.90;;;22.90;97.10;;;;;;5040373;28;20180;-71
2023/07/09 06:58:15;;;;;;;1999.90;999.90;;;23.00;97.10;;;;;;5049924;28;20033;-71
2023/07/09 07:00:41;;;;;;;1999.90;999.90;;;23.20;96.50;;;;;;5052431;28;20029;-73
2023/07/09 07:03:07;;;;;;;1999.90;999.90;;;23.40;96.60;;;;;;5035714;28;20029;-71
2023/07/09 07:05:32;;;;;;;1999.90;999.90;;;23.50;96.30;;;;;;5036289;28;20069;-72
2023/07/09 07:07:59;;;;;;;1999.90;999.90;;;23.70;95.90;;;;;;5040973;28;20037;-74
2023/07/09 07:10:26;;;;;;;1999.90;999.90;;;23.80;96.00;;;;;;5052652;28;20045;-71
2023/07/09 07:12:52;;;;;;;1999.90;999.90;;;24.00;95.60;;;;;;5046061;28;20491;-71
2023/07/09 07:15:18;;;;;;;1999.90;999.90;;;24.20;95.60;;;;;;5034548;28;20041;-70
2023/07/09 07:17:44;;;;;;;1999.90;999.90;;;24.40;95.20;;;;;;5050628;28;20041;-71
2023/07/09 07:20:11;;;;;;;1999.90;999.90;;;24.70;94.50;;;;;;5046861;28;20030;-70
2023/07/09 07:22:37;;;;;;;1999.90;999.90;;;24.90;94.70;;;;;;5044602;28;20037;-70
2023/07/09 07:25:04;;;;;;;1999.90;999.90;;;25.10;94.50;;;;;;5047981;28;20404;-70
2023/07/09 07:27:29;;;;;;;1999.90;999.90;;;25.30;93.90;;;;;;5041324;28;20065;-72
2023/07/09 07:29:55;;;;;;;1999.90;999.90;;;25.60;93.50;;;;;;5047541;28;20036;-70
2023/07/09 07:32:21;;;;;;;1999.90;999.90;;;25.80;92.90;;;;;;5055038;28;20029;-70
2023/07/09 07:34:48;;;;;;;1999.90;999.90;;;25.90;92.80;;;;;;5055883;28;20026;-70
2023/07/09 07:37:14;;;;;;;1999.90;999.90;;;26.10;92.40;;;;;;5055812;28;20030;-69
2023/07/09 07:39:40;;;;;;;1999.90;999.90;;;26.30;92.10;;;;;;5054656;28;20479;-70
2023/07/09 07:42:06;;;;;;;1999.90;999.90;;;26.50;91.80;;;;;;5055389;28;20029;-70
2023/07/09 07:44:32;;;;;;;1999.90;999.90;;;26.70;91.20;;;;;;5055524;28;20029;-70
2023/07/09 07:46:57;;;;;;;1999.90;999.90;;;26.80;91.00;;;;;;5055582;28;20391;-70
2023/07/09 07:49:23;;;;;;;1999.90;999.90;;;27.10;90.40;;;;;;5055757;28;20344;-70
2023/07/09 07:51:48;;;;;;;1999.90;999.90;;;27.40;90.30;;;;;;5055328;28;20033;-69
2023/07/09 07:54:14;;;;;;;1999.90;999.90;;;27.60;89.70;;;;;;5055803;28;20549;-70
2023/07/09 07:56:40;;;;;;;1999.90;999.90;;;27.70;89.60;;;;;;5055617;28;20539;-70
2023/07/09 07:59:05;;;;;;;1999.90;999.90;;;27.90;88.50;;;;;;5055332;28;20510;-70
2023/07/09 08:01:31;;;;;;;1999.90;999.90;;;27.90;87.80;;;;;;5053824;28;20061;-70
2023/07/09 08:03:57;;;;;;;1999.90;999.90;;;28.30;87.80;;;;;;5055431;28;20160;-70
2023/07/09 08:06:23;;;;;;;1999.90;999.90;;;28.50;85.10;;;;;;5055382;28;20030;-70
2023/07/09 08:08:48;;;;;;;1999.90;999.90;;;28.60;83.80;;;;;;5055098;28;20048;-70
2023/07/09 08:11:14;;;;;;;1999.90;999.90;;;28.60;85.10;;;;;;5055207;28;20029;-70
2023/07/09 08:13:41;;;;;;;1999.90;999.90;;;28.80;82.60;;;;;;5054753;28;20144;-70
2023/07/09 08:16:07;;;;;;;1999.90;999.90;;;29.00;81.10;;;;;;5055245;28;20124;-70
2023/07/09 08:18:33;;;;;;;1999.90;999.90;;;29.20;80.60;;;;;;5053707;28;20436;-71
2023/07/09 08:21:00;;;;;;;1999.90;999.90;;;29.30;81.10;;;;;;5054819;28;20044;-70
2023/07/09 08:23:25;;;;;;;1999.90;999.90;;;29.50;79.90;;;;;;5053509;28;20096;-70
2023/07/09 08:25:55;;;;;;;1999.90;999.90;;;29.80;79.50;;;;;;5054929;28;20541;-71
2023/07/09 08:28:21;;;;;;;1999.90;999.90;;;30.00;78.20;;;;;;5054760;28;20049;-70
2023/07/09 08:30:46;;;;;;;1999.90;999.90;;;30.10;76.70;;;;;;5055171;28;20033;-71
2023/07/09 08:33:12;;;;;;;1999.90;999.90;;;30.10;77.80;;;;;;5054738;28;20145;-71
2023/07/09 08:35:37;;;;;;;1999.90;999.90;;;30.20;76.50;;;;;;5054748;28;20037;-72
2023/07/09 08:38:03;;;;;;;1999.90;999.90;;;30.20;75.20;;;;;;5054907;28;20085;-71
2023/07/09 08:40:29;;;;;;;1999.90;999.90;;;30.20;75.00;;;;;;5054754;28;20033;-71
2023/07/09 08:43:03;;;;;;;1999.90;999.90;;;30.40;74.20;;;;;;5054450;28;20037;-72
2023/07/09 08:45:41;;;;;;;1999.90;999.90;;;30.60;74.00;;;;;;5054945;28;20045;-72
2023/07/09 08:48:20;;;;;;;1999.90;999.90;;;30.90;72.60;;;;;;5054745;28;20551;-72
2023/07/09 08:50:52;;;;;;;1999.90;999.90;;;31.10;71.90;;;;;;5054691;28;20525;-71
2023/07/09 08:53:39;;;;;;;1999.90;999.90;;;31.10;71.70;;;;;;5054433;28;20454;-72
2023/07/09 08:56:09;;;;;;;1999.90;999.90;;;31.50;71.20;;;;;;5054782;28;20483;-71
2023/07/09 08:58:37;;;;;;;1999.90;999.90;;;31.90;70.00;;;;;;5054799;28;20113;-71
2023/07/09 09:01:25;;;;;;;1999.90;999.90;;;32.10;68.70;;;;;;5054390;28;20120;-71
2023/07/09 09:03:54;;;;;;;1999.90;999.90;;;32.40;67.50;;;;;;5054339;28;20044;-71
2023/07/09 09:06:25;;;;;;;1999.90;999.90;;;32.50;68.30;;;;;;5054234;28;20056;-72
2023/07/09 09:08:56;;;;;;;1999.90;999.90;;;32.90;66.70;;;;;;5054584;28;20037;-71
2023/07/09 09:11:56;;;;;;;1999.90;999.90;;;32.80;65.80;;;;;;5052857;28;20034;-71
2023/07/09 09:14:38;;;;;;;1999.90;999.90;;;32.90;65.30;;;;;;5054252;28;20040;-72
2023/07/09 09:17:18;;;;;;;1999.90;999.90;;;32.70;64.50;;;;;;5054317;28;20083;-71
2023/07/09 09:19:54;;;;;;;1999.90;999.90;;;33.00;64.40;;;;;;5054214;28;20038;-71
2023/07/09 09:22:24;;;;;;;1999.90;999.90;;;33.20;63.50;;;;;;5053594;28;20089;-72
2023/07/09 09:25:16;;;;;;;1999.90;999.90;;;33.50;64.20;;;;;;5053804;28;20049;-72
2023/07/09 09:27:42;;;;;;;1999.90;999.90;;;33.80;61.60;;;;;;5054268;28;20079;-71
2023/07/09 09:30:18;;;;;;;1999.90;999.90;;;33.90;60.80;;;;;;5054240;28;20076;-72
2023/07/09 09:32:48;;;;;;;1999.90;999.90;;;34.00;60.40;;;;;;5053287;28;20033;-71
2023/07/09 09:35:17;;;;;;;1999.90;999.90;;;34.00;60.50;;;;;;5054093;28;20076;-71
2023/07/09 09:37:51;;;;;;;1999.90;999.90;;;34.30;60.20;;;;;;5054023;28;20029;-72
2023/07/09 09:40:21;;;;;;;1999.90;999.90;;;34.20;59.40;;;;;;5054149;28;20030;-72
2023/07/09 09:42:48;;;;;;;1999.90;999.90;;;33.90;59.90;;;;;;5053761;28;20029;-71
2023/07/09 09:45:17;;;;;;;1999.90;999.90;;;33.90;59.60;;;;;;5054115;28;20037;-71
2023/07/09 09:47:44;;;;;;;1999.90;999.90;;;34.20;59.70;;;;;;5053646;28;20037;-71
2023/07/09 09:50:14;;;;;;;1999.90;999.90;;;34.50;58.70;;;;;;5054080;28;20471;-71
2023/07/09 09:52:40;;;;;;;1999.90;999.90;;;34.50;59.50;;;;;;5053448;28;20033;-71
2023/07/09 09:55:18;;;;;;;1999.90;999.90;;;34.40;59.50;;;;;;5053591;28;20479;-71
2023/07/09 09:57:49;;;;;;;1999.90;999.90;;;34.40;58.90;;;;;;5053987;28;20039;-72
2023/07/09 10:00:16;;;;;;;1999.90;999.90;;;34.60;59.70;;;;;;5053778;28;20021;-71
2023/07/09 10:02:42;;;;;;;1999.90;999.90;;;34.60;58.00;;;;;;5053376;28;20045;-72
2023/07/09 10:05:12;;;;;;;1999.90;999.90;;;34.50;57.90;;;;;;5053882;28;20037;-71
2023/07/09 10:07:45;;;;;;;1999.90;999.90;;;34.50;57.60;;;;;;5053438;28;20044;-71
2023/07/09 10:10:16;;;;;;;1999.90;999.90;;;34.70;57.90;;;;;;5053993;28;20418;-71
2023/07/09 10:12:51;;;;;;;1999.90;999.90;;;34.90;58.40;;;;;;5053330;28;20037;-71
2023/07/09 10:15:31;;;;;;;1999.90;999.90;;;34.90;57.40;;;;;;5053678;28;20034;-71
2023/07/09 10:18:49;;;;;;;1999.90;999.90;;;35.40;58.00;;;;;;5053631;28;20068;-72
2023/07/09 10:21:41;;;;;;;1999.90;999.90;;;35.40;53.70;;;;;;5035566;28;20045;-71
2023/07/09 10:24:20;;;;;;;1999.90;999.90;;;35.60;53.70;;;;;;5053672;28;20030;-71
2023/07/09 10:26:59;;;;;;;1999.90;999.90;;;35.70;53.00;;;;;;5056967;28;20080;-71
2023/07/09 10:29:50;;;;;;;1999.90;999.90;;;35.80;51.20;;;;;;5056896;28;20096;-71
2023/07/09 10:32:52;;;;;;;1999.90;999.90;;;35.90;51.60;;;;;;5056397;28;20113;-72
2023/07/09 10:35:23;;;;;;;1999.90;999.90;;;35.70;49.80;;;;;;5057077;28;20120;-71
2023/07/09 10:37:52;;;;;;;1999.90;999.90;;;35.80;52.30;;;;;;5056835;28;20033;-71
2023/07/09 10:40:25;;;;;;;1999.90;999.90;;;35.90;50.20;;;;;;5055232;28;20040;-72
2023/07/09 10:42:55;;;;;;;1999.90;999.90;;;36.40;49.70;;;;;;5056469;28;20087;-71
2023/07/09 10:45:39;;;;;;;1999.90;999.90;;;36.50;50.10;;;;;;5056561;28;20041;-72
2023/07/09 10:48:13;;;;;;;1999.90;999.90;;;36.60;49.80;;;;;;5056499;28;20068;-71
2023/07/09 10:50:42;;;;;;;1999.90;999.90;;;36.50;50.10;;;;;;5056686;28;20030;-71
2023/07/09 10:53:23;;;;;;;1999.90;999.90;;;36.40;48.50;;;;;;5055911;28;20026;-71
2023/07/09 10:56:00;;;;;;;1999.90;999.90;;;36.60;48.60;;;;;;5056797;28;20026;-71
2023/07/09 10:58:43;;;;;;;1999.90;999.90;;;36.90;50.20;;;;;;5056336;28;20116;-72
2023/07/09 11:01:15;;;;;;;1999.90;999.90;;;37.10;48.10;;;;;;5056237;28;20040;-70
2023/07/09 11:03:47;;;;;;;1999.90;999.90;;;37.10;47.60;;;;;;5056374;28;20124;-71
2023/07/09 11:06:41;;;;;;;1999.90;999.90;;;36.90;47.50;;;;;;5056549;28;20030;-72
2023/07/09 11:09:25;;;;;;;1999.90;999.90;;;37.00;48.90;;;;;;5054718;28;20052;-72
2023/07/09 11:11:54;;;;;;;1999.90;999.90;;;37.10;49.20;;;;;;5055648;28;20055;-71
2023/07/09 11:14:55;;;;;;;1999.90;999.90;;;37.50;47.40;;;;;;5056038;28;20040;-71
2023/07/09 11:17:22;;;;;;;1999.90;999.90;;;37.50;46.30;;;;;;5056241;28;20088;-71
2023/07/09 11:19:54;;;;;;;1999.90;999.90;;;36.80;47.70;;;;;;5055737;28;20037;-71
2023/07/09 11:22:40;;;;;;;1999.90;999.90;;;37.00;45.40;;;;;;5055804;28;20033;-71
2023/07/09 11:25:08;;;;;;;1999.90;999.90;;;37.00;45.30;;;;;;5055800;28;20554;-71
2023/07/09 11:27:46;;;;;;;1999.90;999.90;;;36.70;48.80;;;;;;5056246;28;20045;-71
2023/07/09 11:30:25;;;;;;;1999.90;999.90;;;36.80;48.40;;;;;;5055998;28;20095;-71
2023/07/09 11:32:58;;;;;;;1999.90;999.90;;;37.00;46.80;;;;;;5054660;28;20498;-71
2023/07/09 11:35:27;;;;;;;1999.90;999.90;;;37.10;47.30;;;;;;5054606;28;20063;-71
2023/07/09 11:37:54;;;;;;;1999.90;999.90;;;37.40;50.40;;;;;;5055844;28;20036;-71
2023/07/09 11:40:21;;;;;;;1999.90;999.90;;;37.70;47.10;;;;;;5055854;28;20037;-72
2023/07/09 11:42:51;;;;;;;1999.90;999.90;;;37.70;46.00;;;;;;5055083;28;20037;-71
2023/07/09 11:45:25;;;;;;;1999.90;999.90;;;37.80;45.10;;;;;;5055808;28;20030;-71
2023/07/09 11:48:03;;;;;;;1999.90;999.90;;;38.20;44.60;;;;;;5055725;28;20116;-72
2023/07/09 11:50:41;;;;;;;1999.90;999.90;;;38.10;45.90;;;;;;5055756;28;20033;-71
2023/07/09 11:53:36;;;;;;;1999.90;999.90;;;37.90;44.80;;;;;;5055135;28;20483;-71
2023/07/09 11:56:02;;;;;;;1999.90;999.90;;;38.00;44.80;;;;;;5055545;28;20088;-72
2023/07/09 11:58:27;;;;;;;1999.90;999.90;;;38.50;43.40;;;;;;5055736;28;20034;-71
2023/07/09 12:00:57;;;;;;;1999.90;999.90;;;39.00;45.80;;;;;;5055166;28;20037;-71
2023/07/09 12:03:27;;;;;;;1999.90;999.90;;;39.40;43.70;;;;;;5055445;28;20068;-71
2023/07/09 12:05:56;;;;;;;1999.90;999.90;;;39.40;43.70;;;;;;5055038;28;20403;-71
2023/07/09 12:08:27;;;;;;;1999.90;999.90;;;39.20;44.10;;;;;;5054608;28;20052;-71